createdAt,value
2018-06-13T00:00:53.566Z,16.00
2018-06-13T00:03:22.464Z,16.10
2018-06-13T00:05:51.336Z,15.90
2018-06-13T00:08:20.214Z,15.90
2018-06-13T00:10:49.146Z,15.90
2018-06-13T00:13:18.008Z,15.80
2018-06-13T00:15:47.076Z,15.80
2018-06-13T00:18:15.884Z,15.80
2018-06-13T00:20:44.756Z,15.80
2018-06-13T00:23:13.558Z,15.80
2018-06-13T00:25:42.461Z,15.80
2018-06-13T00:28:11.285Z,15.80
2018-06-13T00:33:08.632Z,15.70
2018-06-13T00:35:37.444Z,15.70
2018-06-13T00:43:03.259Z,15.70
2018-06-13T00:45:32.208Z,15.70
2018-06-13T00:48:01.083Z,15.70
2018-06-13T00:52:58.444Z,15.70
2018-06-13T00:55:27.265Z,15.70
2018-06-13T00:57:56.177Z,15.70
2018-06-13T01:00:25.034Z,15.70
2018-06-13T01:02:53.968Z,15.70
2018-06-13T01:05:22.824Z,15.70
2018-06-13T01:07:51.689Z,15.70
2018-06-13T01:10:20.537Z,15.70
2018-06-13T01:12:49.464Z,15.70
2018-06-13T01:15:18.324Z,15.70
2018-06-13T01:17:47.160Z,15.60
2018-06-13T01:22:44.490Z,15.60
2018-06-13T01:25:13.413Z,15.60
2018-06-13T01:32:39.276Z,15.50
2018-06-13T01:37:36.552Z,15.50
2018-06-13T01:40:05.568Z,15.50
2018-06-13T01:42:34.394Z,15.50
2018-06-13T01:45:03.453Z,15.50
2018-06-13T01:47:32.276Z,15.50
2018-06-13T01:52:29.732Z,15.50
2018-06-13T01:54:58.609Z,15.50
2018-06-13T01:57:27.484Z,15.60
2018-06-13T01:59:56.396Z,15.50
2018-06-13T02:02:25.212Z,15.60
2018-06-13T02:04:54.132Z,15.60
2018-06-13T02:09:51.470Z,15.60
2018-06-13T02:12:20.288Z,15.60
2018-06-13T02:17:17.652Z,15.50
2018-06-13T02:19:46.586Z,15.40
2018-06-13T02:22:15.501Z,15.30
2018-06-13T02:24:44.353Z,15.20
2018-06-13T02:27:13.261Z,15.20
2018-06-13T02:29:42.144Z,15.20
2018-06-13T02:32:11.016Z,15.20
2018-06-13T02:34:39.868Z,15.20
2018-06-13T02:37:08.942Z,15.20
2018-06-13T02:39:37.792Z,15.20
2018-06-13T02:42:06.720Z,15.20
2018-06-13T02:44:35.561Z,15.20
2018-06-13T02:47:04.478Z,15.20
2018-06-13T02:49:33.337Z,15.20
2018-06-13T02:54:30.688Z,15.20
2018-06-13T02:59:28.041Z,15.20
2018-06-13T03:01:56.911Z,15.20
2018-06-13T03:04:25.764Z,15.20
2018-06-13T03:11:51.576Z,15.10
2018-06-13T03:14:20.456Z,15.10
2018-06-13T03:16:49.288Z,15.10
2018-06-13T03:19:18.183Z,15.10
2018-06-13T03:24:15.506Z,15.10
2018-06-13T03:26:44.405Z,15.10
2018-06-13T03:29:13.362Z,15.00
2018-06-13T03:31:42.249Z,15.00
2018-06-13T03:34:11.115Z,15.00
2018-06-13T03:39:09.301Z,15.00
2018-06-13T03:44:06.633Z,15.00
2018-06-13T03:46:35.460Z,15.10
2018-06-13T03:49:04.369Z,15.10
2018-06-13T03:51:33.244Z,15.10
2018-06-13T03:54:02.101Z,15.20
2018-06-13T03:56:30.968Z,15.20
2018-06-13T03:58:59.844Z,15.30
2018-06-13T04:01:28.712Z,15.30
2018-06-13T04:06:26.041Z,15.40
2018-06-13T04:08:54.948Z,15.40
2018-06-13T04:11:23.792Z,15.40
2018-06-13T04:13:52.704Z,15.40
2018-06-13T04:16:21.564Z,15.50
2018-06-13T04:18:50.468Z,15.50
2018-06-13T04:21:19.316Z,15.50
2018-06-13T04:23:48.228Z,15.60
2018-06-13T04:26:17.107Z,15.70
2018-06-13T04:31:14.623Z,15.80
2018-06-13T04:33:43.476Z,15.90
2018-06-13T04:36:12.396Z,15.90
2018-06-13T04:38:41.170Z,16.00
2018-06-13T04:41:10.108Z,16.10
2018-06-13T04:43:38.913Z,16.10
2018-06-13T04:46:07.860Z,16.10
2018-06-13T04:48:36.672Z,16.20
2018-06-13T04:51:05.592Z,16.30
2018-06-13T04:53:34.410Z,16.50
2018-06-13T04:56:03.319Z,16.60
2018-06-13T04:58:32.165Z,16.60
2018-06-13T05:03:29.460Z,17.00
2018-06-13T05:05:58.333Z,17.10
2018-06-13T05:10:55.730Z,17.40
2018-06-13T05:13:24.584Z,17.50
2018-06-13T05:15:53.497Z,17.70
2018-06-13T05:23:19.337Z,18.10
2018-06-13T05:28:16.613Z,18.20
2018-06-13T05:30:45.529Z,18.20
2018-06-13T05:33:14.333Z,18.20
2018-06-13T05:35:43.235Z,18.30
2018-06-13T05:38:12.301Z,18.60
2018-06-13T05:40:41.956Z,18.80
2018-06-13T05:43:10.845Z,18.90
2018-06-13T05:45:40.329Z,19.00
2018-06-13T05:48:09.189Z,19.10
2018-06-13T05:50:38.032Z,19.10
2018-06-13T05:53:07.192Z,19.10
2018-06-13T05:55:36.332Z,19.00
2018-06-13T05:58:05.265Z,19.00
2018-06-13T06:00:34.185Z,19.00
2018-06-13T06:03:03.892Z,19.20
2018-06-13T06:05:32.789Z,19.40
2018-06-13T06:08:01.989Z,19.30
2018-06-13T06:10:30.977Z,19.20
2018-06-13T06:12:59.800Z,19.10
2018-06-13T06:15:28.669Z,19.10
2018-06-13T06:17:57.609Z,19.30
2018-06-13T06:22:55.000Z,19.70
2018-06-13T06:25:23.876Z,19.90
2018-06-13T06:27:52.903Z,20.00
2018-06-13T06:30:21.844Z,20.00
2018-06-13T06:35:19.222Z,19.90
2018-06-13T06:40:16.561Z,19.80
2018-06-13T06:42:45.488Z,19.90
2018-06-13T06:45:14.429Z,20.00
2018-06-13T06:47:43.325Z,20.10
2018-06-13T06:50:12.219Z,20.10
2018-06-13T06:52:41.120Z,20.30
2018-06-13T06:55:09.991Z,20.50
2018-06-13T06:57:38.948Z,20.70
2018-06-13T07:00:07.858Z,20.60
2018-06-13T07:02:36.749Z,20.50
2018-06-13T07:05:05.563Z,20.70
2018-06-13T07:07:34.520Z,20.90
2018-06-13T07:10:03.316Z,21.00
2018-06-13T07:12:32.241Z,21.20
2018-06-13T07:15:01.097Z,21.50
2018-06-13T07:17:30.117Z,21.70
2018-06-13T07:19:59.056Z,21.90
2018-06-13T07:22:27.839Z,22.10
2018-06-13T07:24:56.859Z,22.10
2018-06-13T07:27:25.668Z,22.10
2018-06-13T07:29:54.599Z,22.10
2018-06-13T07:32:23.393Z,22.20
2018-06-13T07:37:20.696Z,22.10
2018-06-13T07:39:49.588Z,22.30
2018-06-13T07:42:23.416Z,22.40
2018-06-13T07:44:52.459Z,22.50
2018-06-13T07:49:49.881Z,22.80
2018-06-13T07:52:18.769Z,22.70
2018-06-13T07:54:47.639Z,22.70
2018-06-13T07:57:16.442Z,22.60
2018-06-13T07:59:45.312Z,22.70
2018-06-13T08:02:14.171Z,22.60
2018-06-13T08:04:43.104Z,22.80
2018-06-13T08:07:11.982Z,22.90
2018-06-13T08:09:40.797Z,23.00
2018-06-13T08:12:09.767Z,23.10
2018-06-13T08:14:38.577Z,23.10
2018-06-13T08:17:07.602Z,23.10
2018-06-13T08:19:36.444Z,23.20
2018-06-13T08:22:05.376Z,23.30
2018-06-13T08:24:45.263Z,23.40
2018-06-13T08:29:42.608Z,23.50
2018-06-13T08:32:11.532Z,23.50
2018-06-13T08:34:40.498Z,23.70
2018-06-13T08:37:09.461Z,23.80
2018-06-13T08:39:38.281Z,24.00
2018-06-13T08:42:08.619Z,24.20
2018-06-13T08:44:37.484Z,24.20
2018-06-13T08:47:06.395Z,24.20
2018-06-13T08:52:03.841Z,24.20
2018-06-13T08:54:32.840Z,24.30
2018-06-13T08:57:01.673Z,24.40
2018-06-13T08:59:30.777Z,24.60
2018-06-13T09:02:00.730Z,24.70
2018-06-13T09:04:29.631Z,24.50
2018-06-13T09:06:58.554Z,24.30
2018-06-13T09:09:27.509Z,24.20
2018-06-13T09:11:56.513Z,24.10
2018-06-13T09:14:26.632Z,24.00
2018-06-13T09:16:55.697Z,24.00
2018-06-13T09:19:27.306Z,23.90
2018-06-13T09:21:56.315Z,23.90
2018-06-13T09:24:25.272Z,23.80
2018-06-13T09:26:55.681Z,23.70
2018-06-13T09:29:24.720Z,23.70
2018-06-13T09:31:53.606Z,23.60
2018-06-13T09:34:22.561Z,23.50
2018-06-13T09:36:51.880Z,23.50
2018-06-13T09:41:54.607Z,23.30
2018-06-13T09:44:23.573Z,23.30
2018-06-13T09:46:52.461Z,23.10
2018-06-13T09:51:49.929Z,23.00
2018-06-13T09:54:18.793Z,22.90
2018-06-13T09:56:47.825Z,22.80
2018-06-13T09:59:20.218Z,22.70
2018-06-13T10:01:55.045Z,22.70
2018-06-13T10:04:23.987Z,22.60
2018-06-13T10:06:53.381Z,22.70
2018-06-13T10:09:22.304Z,22.70
2018-06-13T10:11:51.280Z,22.80
2018-06-13T10:14:20.198Z,22.90
2018-06-13T10:19:18.601Z,23.10
2018-06-13T10:21:47.597Z,23.30
2018-06-13T10:24:16.533Z,23.80
2018-06-13T10:26:45.516Z,24.10
2018-06-13T10:29:14.382Z,24.50
2018-06-13T10:31:43.443Z,24.90
2018-06-13T10:34:12.523Z,25.30
2018-06-13T10:36:41.418Z,25.60
2018-06-13T10:39:10.391Z,25.90
2018-06-13T10:41:39.301Z,26.20
2018-06-13T10:44:08.275Z,26.50
2018-06-13T10:46:54.785Z,26.80
2018-06-13T10:49:23.759Z,27.20
2018-06-13T10:51:52.945Z,27.30
2018-06-13T10:54:21.921Z,27.50
2018-06-13T10:56:57.625Z,27.40
2018-06-13T10:59:26.640Z,27.50
2018-06-13T11:01:55.505Z,27.70
2018-06-13T11:04:24.505Z,27.60
2018-06-13T11:06:53.381Z,27.50
2018-06-13T11:09:22.665Z,27.30
2018-06-13T11:11:51.861Z,27.20
2018-06-13T11:14:20.806Z,27.50
2018-06-13T11:16:49.773Z,27.90
2018-06-13T11:19:18.681Z,28.40
2018-06-13T11:21:48.633Z,28.60
2018-06-13T11:24:17.530Z,28.70
2018-06-13T11:26:46.487Z,28.80
2018-06-13T11:31:45.471Z,28.80
2018-06-13T11:34:14.397Z,28.90
2018-06-13T11:36:43.505Z,28.80
2018-06-13T11:39:12.726Z,28.80
2018-06-13T11:41:41.833Z,28.80
2018-06-13T11:44:10.833Z,28.90
2018-06-13T11:46:39.767Z,28.60
2018-06-13T11:49:08.841Z,28.50
2018-06-13T11:51:37.753Z,28.20
2018-06-13T11:56:35.161Z,27.20
2018-06-13T11:59:04.105Z,26.80
2018-06-13T12:01:33.086Z,26.70
2018-06-13T12:04:02.027Z,26.50
2018-06-13T12:06:30.881Z,26.40
2018-06-13T12:08:59.834Z,26.30
2018-06-13T12:11:28.907Z,26.30
2018-06-13T12:13:57.856Z,26.30
2018-06-13T12:16:26.874Z,26.40
2018-06-13T12:18:55.910Z,26.20
2018-06-13T12:21:24.833Z,26.30
2018-06-13T12:23:53.693Z,26.30
2018-06-13T12:26:22.620Z,26.30
2018-06-13T12:31:20.066Z,26.20
2018-06-13T12:33:48.966Z,26.10
2018-06-13T12:36:17.925Z,26.10
2018-06-13T12:38:46.855Z,26.20
2018-06-13T12:41:15.763Z,26.40
2018-06-13T12:43:44.745Z,26.50
2018-06-13T12:46:13.712Z,26.60
2018-06-13T12:48:42.817Z,26.70
2018-06-13T12:51:11.737Z,26.60
2018-06-13T12:56:09.096Z,27.00
2018-06-13T12:58:38.074Z,27.00
2018-06-13T13:01:06.973Z,27.00
2018-06-13T13:03:36.029Z,27.00
2018-06-13T13:06:04.929Z,27.00
2018-06-13T13:08:33.930Z,26.70
2018-06-13T13:11:02.883Z,26.50
2018-06-13T13:13:31.813Z,26.60
2018-06-13T13:16:00.716Z,26.70
2018-06-13T13:18:29.606Z,26.70
2018-06-13T13:20:58.557Z,26.70
2018-06-13T13:23:27.514Z,26.50
2018-06-13T13:25:56.449Z,26.10
2018-06-13T13:28:25.357Z,25.80
2018-06-13T13:30:54.281Z,25.70
2018-06-13T13:33:23.317Z,25.40
2018-06-13T13:35:52.195Z,25.10
2018-06-13T13:38:21.749Z,24.80
2018-06-13T13:40:50.706Z,24.60
2018-06-13T13:43:19.691Z,24.30
2018-06-13T13:45:48.831Z,24.00
2018-06-13T13:48:17.774Z,23.70
2018-06-13T13:53:16.143Z,23.30
2018-06-13T13:55:48.415Z,23.10
2018-06-13T13:58:18.420Z,22.90
2018-06-13T14:00:48.097Z,22.70
2018-06-13T14:03:19.371Z,22.50
2018-06-13T14:05:48.959Z,22.30
2018-06-13T14:08:19.051Z,22.20
2018-06-13T14:10:49.140Z,22.00
2018-06-13T14:18:15.477Z,21.40
2018-06-13T14:20:46.208Z,21.10
2018-06-13T14:23:15.844Z,20.80
2018-06-13T14:25:45.757Z,20.40
2018-06-13T14:28:15.167Z,20.10
2018-06-13T14:30:44.121Z,19.60
2018-06-13T14:33:14.141Z,19.20
2018-06-13T14:35:44.918Z,18.90
2018-06-13T14:38:15.422Z,18.70
2018-06-13T14:40:44.296Z,18.60
2018-06-13T14:43:13.416Z,18.50
2018-06-13T14:45:42.654Z,18.50
2018-06-13T14:48:12.012Z,18.40
2018-06-13T14:53:09.935Z,18.50
2018-06-13T14:55:49.400Z,18.60
2018-06-13T14:58:19.402Z,18.60
2018-06-13T15:00:49.065Z,18.50
2018-06-13T15:03:18.994Z,18.60
2018-06-13T15:08:17.271Z,18.40
2018-06-13T15:10:46.257Z,18.20
2018-06-13T15:13:16.332Z,18.10
2018-06-13T15:15:45.221Z,18.00
2018-06-13T15:18:14.227Z,18.00
2018-06-13T15:20:43.122Z,18.00
2018-06-13T15:23:12.072Z,18.00
2018-06-13T15:30:37.972Z,18.00
2018-06-13T15:33:06.932Z,18.00
2018-06-13T15:35:35.893Z,18.10
2018-06-13T15:38:06.936Z,18.10
2018-06-13T15:43:27.525Z,18.20
2018-06-13T15:45:56.513Z,18.20
2018-06-13T15:48:25.388Z,18.20
2018-06-13T15:50:54.337Z,18.20
2018-06-13T15:53:23.278Z,18.30
2018-06-13T15:55:53.450Z,18.30
2018-06-13T15:58:22.421Z,18.30
2018-06-13T16:00:51.414Z,18.20
2018-06-13T16:03:21.301Z,18.20
2018-06-13T16:05:50.322Z,18.10
2018-06-13T16:10:47.856Z,18.00
2018-06-13T16:13:16.784Z,17.90
2018-06-13T16:15:45.747Z,17.90
2018-06-13T16:18:14.682Z,17.80
2018-06-13T16:23:12.279Z,17.70
2018-06-13T16:25:41.345Z,17.70
2018-06-13T16:28:10.471Z,17.70
2018-06-13T16:30:39.539Z,17.70
2018-06-13T16:33:08.502Z,17.70
2018-06-13T16:35:38.354Z,17.70
2018-06-13T16:40:35.874Z,17.70
2018-06-13T16:43:04.906Z,17.80
2018-06-13T16:45:33.841Z,17.80
2018-06-13T16:48:02.833Z,17.80
2018-06-13T16:50:42.717Z,17.80
2018-06-13T16:54:16.348Z,17.70
2018-06-13T16:56:45.253Z,17.70
2018-06-13T16:59:14.186Z,17.70
2018-06-13T17:01:43.245Z,17.70
2018-06-13T17:04:12.198Z,17.60
2018-06-13T17:06:41.177Z,17.60
2018-06-13T17:09:10.085Z,17.60
2018-06-13T17:11:39.079Z,17.70
2018-06-13T17:16:38.401Z,17.70
2018-06-13T17:19:07.350Z,17.60
2018-06-13T17:21:36.347Z,17.60
2018-06-13T17:24:05.256Z,17.60
2018-06-13T17:26:34.190Z,17.70
2018-06-13T17:29:03.154Z,17.70
2018-06-13T17:31:32.102Z,17.70
2018-06-13T17:36:30.766Z,17.60
2018-06-13T17:38:59.757Z,17.60
2018-06-13T17:41:28.733Z,17.60
2018-06-13T17:43:57.689Z,17.50
2018-06-13T17:46:26.735Z,17.50
2018-06-13T17:48:55.769Z,17.40
2018-06-13T17:51:24.785Z,17.40
2018-06-13T17:53:53.691Z,17.30
2018-06-13T17:56:23.230Z,17.20
2018-06-13T18:01:21.175Z,17.20
2018-06-13T18:03:50.292Z,17.10
2018-06-13T18:06:19.371Z,17.20
2018-06-13T18:08:48.425Z,17.10
2018-06-13T18:11:18.006Z,17.20
2018-06-13T18:16:15.905Z,17.10
2018-06-13T18:18:44.843Z,17.10
2018-06-13T18:21:13.960Z,17.00
2018-06-13T18:23:43.136Z,16.90
2018-06-13T18:26:12.117Z,16.90
2018-06-13T18:28:41.028Z,16.80
2018-06-13T18:31:10.322Z,16.80
2018-06-13T18:33:39.683Z,16.90
2018-06-13T18:36:09.570Z,16.80
2018-06-13T18:38:38.534Z,16.80
2018-06-13T18:41:07.596Z,16.80
2018-06-13T18:43:36.917Z,16.70
2018-06-13T18:46:05.977Z,16.70
2018-06-13T18:48:34.921Z,16.70
2018-06-13T18:51:03.829Z,16.80
2018-06-13T18:53:33.109Z,16.70
2018-06-13T18:56:02.081Z,16.70
2018-06-13T18:58:30.965Z,16.70
2018-06-13T19:01:00.022Z,16.60
2018-06-13T19:03:29.013Z,16.60
2018-06-13T19:05:58.030Z,16.60
2018-06-13T19:08:26.896Z,16.60
2018-06-13T19:10:55.981Z,16.60
2018-06-13T19:13:24.955Z,16.60
2018-06-13T19:15:54.132Z,16.60
2018-06-13T19:18:25.013Z,16.60
2018-06-13T19:20:54.129Z,16.50
2018-06-13T19:23:23.122Z,16.60
2018-06-13T19:28:31.235Z,16.60
2018-06-13T19:31:00.469Z,16.50
2018-06-13T19:33:30.213Z,16.60
2018-06-13T19:35:59.183Z,16.60
2018-06-13T19:38:28.642Z,16.50
2018-06-13T19:40:57.621Z,16.50
2018-06-13T19:43:31.701Z,16.50
2018-06-13T19:46:00.606Z,16.40
2018-06-13T19:48:34.729Z,16.40
2018-06-13T19:51:03.770Z,16.40
2018-06-13T19:53:37.952Z,16.40
2018-06-13T19:56:08.329Z,16.40
2018-06-13T19:58:38.549Z,16.40
2018-06-13T20:01:07.955Z,16.40
2018-06-13T20:03:42.081Z,16.30
2018-06-13T20:06:11.621Z,16.30
2018-06-13T20:08:40.593Z,16.30
2018-06-13T20:11:09.520Z,16.30
2018-06-13T20:13:43.913Z,16.30
2018-06-13T20:16:18.089Z,16.20
2018-06-13T20:18:52.217Z,16.20
2018-06-13T20:21:21.121Z,16.20
2018-06-13T20:23:50.154Z,16.20
2018-06-13T20:26:24.667Z,16.30
2018-06-13T20:28:59.028Z,16.20
2018-06-13T20:31:32.082Z,16.30
2018-06-13T20:34:01.593Z,16.30
2018-06-13T20:38:59.446Z,16.30
2018-06-13T20:41:28.617Z,16.30
2018-06-13T20:43:57.542Z,16.30
2018-06-13T20:46:27.326Z,16.30
2018-06-13T20:48:56.376Z,16.30
2018-06-13T20:51:25.351Z,16.30
2018-06-13T20:53:54.286Z,16.30
2018-06-13T20:56:23.133Z,16.30
2018-06-13T20:58:52.117Z,16.40
2018-06-13T21:06:24.056Z,16.20
2018-06-13T21:08:53.015Z,16.10
2018-06-13T21:11:22.067Z,16.10
2018-06-13T21:13:51.108Z,16.00
2018-06-13T21:18:48.816Z,16.10
2018-06-13T21:21:17.712Z,16.10
2018-06-13T21:23:46.678Z,16.10
2018-06-13T21:31:12.668Z,16.20
2018-06-13T21:33:41.645Z,16.20
2018-06-13T21:36:10.517Z,16.20
2018-06-13T21:38:39.468Z,16.20
2018-06-13T21:41:08.389Z,16.10
2018-06-13T21:43:37.369Z,16.20
2018-06-13T21:46:06.333Z,16.10
2018-06-13T21:48:35.192Z,16.10
2018-06-13T21:51:04.156Z,16.10
2018-06-13T21:56:01.887Z,16.00
2018-06-13T21:58:33.010Z,16.00
2018-06-13T22:01:01.953Z,16.00
2018-06-13T22:03:30.875Z,16.00
2018-06-13T22:05:59.793Z,16.00
2018-06-13T22:08:28.761Z,16.00
2018-06-13T22:13:26.410Z,16.00
2018-06-13T22:15:55.302Z,16.00
2018-06-13T22:18:24.233Z,16.10
2018-06-13T22:20:53.192Z,16.10
2018-06-13T22:23:22.150Z,16.10
2018-06-13T22:25:51.051Z,16.10
2018-06-13T22:28:20.041Z,16.10
2018-06-13T22:30:49.498Z,16.00
2018-06-13T22:33:18.510Z,16.00
2018-06-13T22:35:47.441Z,16.00
2018-06-13T22:38:16.366Z,16.00
2018-06-13T22:40:45.333Z,16.00
2018-06-13T22:43:14.201Z,16.00
2018-06-13T22:45:43.160Z,15.90
2018-06-13T22:48:12.044Z,16.00
2018-06-13T22:53:09.572Z,16.00
2018-06-13T22:55:38.548Z,16.00
2018-06-13T22:58:07.545Z,16.00
2018-06-13T23:01:10.436Z,16.00
2018-06-13T23:03:39.609Z,16.00
2018-06-13T23:06:09.705Z,16.10
2018-06-13T23:08:39.228Z,16.00
2018-06-13T23:13:36.861Z,16.10
2018-06-13T23:16:05.821Z,16.10
2018-06-13T23:18:34.793Z,16.10
2018-06-13T23:21:03.803Z,16.10
2018-06-13T23:23:32.761Z,16.00
2018-06-13T23:26:01.689Z,16.00
2018-06-13T23:28:30.622Z,16.00
2018-06-13T23:30:59.600Z,16.00
2018-06-13T23:33:28.515Z,16.00
2018-06-13T23:35:57.433Z,16.00
2018-06-13T23:38:26.350Z,16.00
2018-06-13T23:40:55.266Z,15.90
2018-06-13T23:43:24.326Z,15.90
2018-06-13T23:45:53.173Z,15.90
2018-06-13T23:50:50.559Z,15.90
2018-06-13T23:53:19.587Z,15.90
2018-06-13T23:55:48.532Z,15.80
2018-06-13T23:58:17.445Z,15.80
